Last 24 Hours

UH Manoa Atmospheric Sciences

15 Minute Data | Pacific/Honolulu
as of 1/19/21 11:06 PM HST
Station Date Time Temp (°F) RH (%) Dew Pt (°F) Wind Spd (mph) Wind Dir (°) Wind Gust (mph) Latest Rain (In) Solar Rad (W/m2) Heat Index (°F) Barometric Pressure (inHg) Daily Rain (In) Daily Min Temp (°F) Daily Max Temp (°F) Daily Max Wind (mph)
UH Manoa Atmospheric Sciences 1/19/21 2300 74.4 76 66.6 2.3 ENE | 67 5.7 0.00 0 74.4 30.03 0.29 69.3 80.4 36.4
UH Manoa Atmospheric Sciences 1/19/21 2245 74.4 77 66.7 5.4 ENE | 65 13.6 0.00 0 74.4 30.03 0.29 69.3 80.4 36.4
UH Manoa Atmospheric Sciences 1/19/21 2230 74.8 75 66.5 5.0 ENE | 60 10.4 0.00 0 74.8 30.03 0.29 69.3 80.4 36.4
UH Manoa Atmospheric Sciences 1/19/21 2215 75.0 75 66.4 3.6 ENE | 67 6.5 0.00 0 75.0 30.03 0.29 69.3 80.4 36.4
UH Manoa Atmospheric Sciences 1/19/21 2200 74.9 75 66.4 5.3 ENE | 64 8.0 0.00 0 74.9 30.02 0.29 69.3 80.4 36.4
UH Manoa Atmospheric Sciences 1/19/21 2145 74.9 75 66.4 5.6 ENE | 63 18.0 0.00 0 74.9 30.02 0.29 69.3 80.4 36.4
UH Manoa Atmospheric Sciences 1/19/21 2130 74.8 76 66.7 5.8 ENE | 66 11.3 0.00 0 74.8 30.02 0.29 69.3 80.4 36.4
UH Manoa Atmospheric Sciences 1/19/21 2115 74.8 75 66.2 4.2 ENE | 68 8.1 0.00 0 74.8 30.02 0.29 69.3 80.4 36.4
UH Manoa Atmospheric Sciences 1/19/21 2100 74.9 74 66.1 4.8 ENE | 71 9.2 0.00 0 74.9 30.02 0.29 69.3 80.4 36.4
UH Manoa Atmospheric Sciences 1/19/21 2045 74.8 75 66.5 5.7 ENE | 64 11.8 0.00 0 74.8 30.02 0.29 69.3 80.4 36.4
UH Manoa Atmospheric Sciences 1/19/21 2030 74.7 76 66.5 4.8 ENE | 63 10.8 0.00 0 74.7 30.01 0.29 69.3 80.4 36.4
UH Manoa Atmospheric Sciences 1/19/21 2015 74.5 76 66.6 3.8 ENE | 63 8.4 0.00 0 74.5 30.01 0.29 69.3 80.4 36.4
UH Manoa Atmospheric Sciences 1/19/21 2000 74.7 76 66.6 4.4 ENE | 66 7.5 0.00 0 74.7 30.00 0.29 69.3 80.4 36.4
UH Manoa Atmospheric Sciences 1/19/21 1945 74.5 76 66.4 4.0 ENE | 66 7.1 0.00 0 74.5 30.00 0.29 69.3 80.4 36.4
UH Manoa Atmospheric Sciences 1/19/21 1930 74.6 75 66.3 5.2 ENE | 65 9.9 0.00 0 74.6 30.00 0.29 69.3 80.4 36.4
UH Manoa Atmospheric Sciences 1/19/21 1915 74.6 75 66.1 6.4 ENE | 69 13.0 0.00 0 74.6 30.00 0.29 69.3 80.4 36.4
UH Manoa Atmospheric Sciences 1/19/21 1900 74.6 75 66.1 7.9 ENE | 61 18.0 0.00 0 74.6 30.00 0.29 69.3 80.4 36.4
UH Manoa Atmospheric Sciences 1/19/21 1845 74.3 77 66.5 6.1 ENE | 67 16.9 0.00 0 74.3 30.00 0.29 69.3 80.4 36.4
UH Manoa Atmospheric Sciences 1/19/21 1830 74.5 77 66.8 6.0 ENE | 67 13.5 0.00 0 74.5 29.99 0.29 69.3 80.4 36.4
UH Manoa Atmospheric Sciences 1/19/21 1815 74.7 76 66.8 3.2 NE | 37 8.1 0.00 3 74.7 29.99 0.29 69.3 80.4 36.4
UH Manoa Atmospheric Sciences 1/19/21 1800 75.0 75 66.6 5.0 NE | 56 10.7 0.00 29 75.0 29.98 0.29 69.3 80.4 36.4
UH Manoa Atmospheric Sciences 1/19/21 1745 75.0 76 66.9 5.1 ENE | 64 10.4 0.00 39 75.0 29.98 0.29 69.3 80.4 36.4
UH Manoa Atmospheric Sciences 1/19/21 1730 75.4 74 66.7 4.6 ENE | 66 12.1 0.00 72 75.4 29.97 0.29 69.3 80.4 36.4
UH Manoa Atmospheric Sciences 1/19/21 1715 75.3 74 66.6 3.5 ENE | 61 8.6 0.00 105 75.3 29.97 0.29 69.3 80.4 36.4
UH Manoa Atmospheric Sciences 1/19/21 1700 75.4 74 66.7 2.9 NE | 51 8.6 0.00 106 75.4 29.97 0.29 69.3 80.4 36.4
UH Manoa Atmospheric Sciences 1/19/21 1645 75.3 74 66.6 4.4 NE | 51 12.8 0.00 171 75.3 29.97 0.29 69.3 80.4 36.4
UH Manoa Atmospheric Sciences 1/19/21 1630 75.4 74 66.4 6.0 NE | 50 12.2 0.00 189 75.4 29.96 0.29 69.3 80.4 36.4
UH Manoa Atmospheric Sciences 1/19/21 1615 76.3 72 66.6 6.7 NE | 43 14.7 0.00 188 76.3 29.96 0.29 69.3 80.4 36.4
UH Manoa Atmospheric Sciences 1/19/21 1600 76.9 71 66.6 3.8 NE | 42 10.6 0.00 448 76.9 29.95 0.29 69.3 80.4 36.4
UH Manoa Atmospheric Sciences 1/19/21 1545 76.7 70 66.3 5.4 NE | 41 16.2 0.00 273 76.7 29.95 0.29 69.3 80.4 36.4
UH Manoa Atmospheric Sciences 1/19/21 1530 77.5 68 66.0 6.9 NNE | 32 14.3 0.00 347 77.5 29.95 0.29 69.3 80.4 36.4
UH Manoa Atmospheric Sciences 1/19/21 1515 77.5 68 66.1 7.4 NE | 43 16.3 0.00 439 77.5 29.95 0.29 69.3 80.4 36.4
UH Manoa Atmospheric Sciences 1/19/21 1500 77.8 67 65.9 6.4 NE | 53 17.4 0.00 374 77.8 29.95 0.29 69.3 80.4 36.4
UH Manoa Atmospheric Sciences 1/19/21 1445 78.0 66 65.8 7.2 NE | 50 18.3 0.00 470 78.0 29.95 0.29 69.3 80.4 36.4
UH Manoa Atmospheric Sciences 1/19/21 1430 78.2 65 65.5 7.4 NE | 53 16.2 0.00 514 78.2 29.95 0.29 69.3 80.4 36.4
UH Manoa Atmospheric Sciences 1/19/21 1415 78.6 63 65.2 6.4 NE | 41 13.4 0.00 645 78.6 29.95 0.29 69.3 80.4 36.4
UH Manoa Atmospheric Sciences 1/19/21 1400 79.3 61 64.8 5.8 NE | 53 14.2 0.00 578 79.3 29.96 0.29 69.3 80.4 36.4
UH Manoa Atmospheric Sciences 1/19/21 1345 79.4 60 64.5 5.8 NNE | 32 13.8 0.00 649 79.5 29.97 0.29 69.3 80.4 36.4
UH Manoa Atmospheric Sciences 1/19/21 1330 79.2 60 64.2 7.8 NE | 49 16.0 0.00 771 79.2 29.97 0.29 69.3 80.4 36.4
UH Manoa Atmospheric Sciences 1/19/21 1315 79.4 60 64.3 8.1 NE | 43 17.7 0.00 810 79.7 29.98 0.29 69.3 80.4 36.4
UH Manoa Atmospheric Sciences 1/19/21 1300 78.8 61 64.1 7.4 NE | 51 23.2 0.00 661 78.9 29.98 0.29 69.3 80.1 36.4
UH Manoa Atmospheric Sciences 1/19/21 1245 78.5 61 64.0 10.8 NE | 46 21.3 0.00 713 78.5 29.98 0.29 69.3 79.4 36.4
UH Manoa Atmospheric Sciences 1/19/21 1230 78.6 61 63.8 9.8 NE | 44 19.3 0.00 749 78.6 29.99 0.29 69.3 79.4 36.4
UH Manoa Atmospheric Sciences 1/19/21 1215 78.3 62 64.2 11.1 NE | 39 29.6 0.00 698 78.3 29.99 0.29 69.3 79.4 36.4
UH Manoa Atmospheric Sciences 1/19/21 1200 78.0 63 64.6 11.3 NE | 41 22.6 0.00 758 78.0 30.00 0.29 69.3 79.4 36.4
UH Manoa Atmospheric Sciences 1/19/21 1145 77.7 64 64.7 12.1 NE | 41 26.2 0.00 726 77.7 30.01 0.29 69.3 79.4 36.4
UH Manoa Atmospheric Sciences 1/19/21 1130 78.2 65 65.7 8.7 NE | 49 20.7 0.00 722 78.2 30.02 0.29 69.3 79.4 36.4
UH Manoa Atmospheric Sciences 1/19/21 1115 78.4 65 65.7 8.0 ENE | 58 20.3 0.00 743 78.4 30.02 0.29 69.3 79.4 36.4
UH Manoa Atmospheric Sciences 1/19/21 1100 78.3 65 65.8 5.9 NE | 52 12.4 0.00 735 78.3 30.02 0.29 69.3 78.9 36.4
UH Manoa Atmospheric Sciences 1/19/21 1045 77.5 66 65.4 7.0 ENE | 65 16.8 0.00 710 77.5 30.03 0.29 69.3 78.2 36.4
UH Manoa Atmospheric Sciences 1/19/21 1030 76.6 68 65.4 7.7 ENE | 72 21.1 0.00 575 76.6 30.04 0.29 69.3 77.3 36.4
UH Manoa Atmospheric Sciences 1/19/21 1015 76.3 68 65.2 7.3 ENE | 65 15.0 0.00 384 76.3 30.04 0.29 69.3 76.8 36.4
UH Manoa Atmospheric Sciences 1/19/21 1000 76.3 69 65.6 6.2 ENE | 65 13.7 0.00 446 76.3 30.04 0.29 69.3 76.8 36.4
UH Manoa Atmospheric Sciences 1/19/21 0945 75.8 70 65.5 7.6 ENE | 62 14.1 0.00 467 75.8 30.04 0.29 69.3 76.2 36.4
UH Manoa Atmospheric Sciences 1/19/21 0930 75.5 71 65.4 5.6 NE | 54 11.0 0.00 462 75.5 30.05 0.29 69.3 76.0 36.4
UH Manoa Atmospheric Sciences 1/19/21 0915 75.0 72 65.2 5.3 ENE | 65 9.4 0.00 424 75.0 30.05 0.29 69.3 75.5 36.4
UH Manoa Atmospheric Sciences 1/19/21 0900 74.4 73 65.0 5.9 ENE | 65 12.1 0.00 318 74.4 30.05 0.29 69.3 74.9 36.4
UH Manoa Atmospheric Sciences 1/19/21 0845 74.4 73 65.2 4.9 ENE | 61 9.7 0.00 246 74.4 30.05 0.29 69.3 74.8 36.4
UH Manoa Atmospheric Sciences 1/19/21 0830 74.2 73 64.9 6.7 ENE | 64 16.0 0.00 313 74.2 30.04 0.29 69.3 74.5 36.4
UH Manoa Atmospheric Sciences 1/19/21 0815 73.4 74 64.8 7.0 ENE | 58 14.8 0.00 256 73.4 30.03 0.29 69.3 73.9 36.4
UH Manoa Atmospheric Sciences 1/19/21 0800 73.1 77 65.3 7.0 ENE | 64 13.8 0.00 144 73.1 30.03 0.29 69.3 73.3 36.4
UH Manoa Atmospheric Sciences 1/19/21 0745 72.4 79 65.6 6.8 ENE | 58 16.0 0.00 54 72.4 30.03 0.29 69.3 72.9 36.4
UH Manoa Atmospheric Sciences 1/19/21 0730 71.9 82 66.3 8.2 ENE | 67 14.9 0.00 15 71.9 30.02 0.29 69.3 72.6 36.4
UH Manoa Atmospheric Sciences 1/19/21 0715 71.9 82 66.2 4.8 E | 81 12.6 0.00 0 71.9 30.02 0.29 69.3 72.6 36.4
UH Manoa Atmospheric Sciences 1/19/21 0700 72.0 82 66.1 5.2 ENE | 64 9.6 0.00 0 72.0 30.01 0.29 69.3 72.6 36.4
UH Manoa Atmospheric Sciences 1/19/21 0645 71.9 81 65.8 3.8 ENE | 73 12.2 0.00 0 71.9 30.00 0.29 69.3 72.2 36.4
UH Manoa Atmospheric Sciences 1/19/21 0630 71.6 83 66.1 2.8 E | 82 11.3 0.00 0 71.6 30.00 0.29 69.3 72.2 36.4
UH Manoa Atmospheric Sciences 1/19/21 0615 71.3 85 66.6 4.1 NE | 54 10.4 0.00 0 71.3 29.99 0.29 69.3 72.1 36.4
UH Manoa Atmospheric Sciences 1/19/21 0600 71.4 84 66.4 6.0 ENE | 66 13.6 0.00 0 71.4 29.98 0.29 69.3 71.8 36.4
UH Manoa Atmospheric Sciences 1/19/21 0545 71.0 86 66.7 4.5 ENE | 60 9.1 0.00 0 71.0 29.98 0.29 69.3 71.4 36.4
UH Manoa Atmospheric Sciences 1/19/21 0530 70.2 90 67.1 4.0 E | 92 12.4 0.01 0 70.2 29.98 0.29 69.3 71.2 36.4
UH Manoa Atmospheric Sciences 1/19/21 0515 70.1 90 67.1 2.6 ENE | 78 10.2 0.03 0 70.1 29.98 0.28 69.3 71.2 36.4
UH Manoa Atmospheric Sciences 1/19/21 0500 70.3 90 67.2 2.0 ENE | 70 5.9 0.02 0 70.3 29.97 0.25 69.3 71.2 36.4
UH Manoa Atmospheric Sciences 1/19/21 0445 69.6 91 67.0 3.6 E | 94 9.5 0.01 0 69.6 29.96 0.23 69.3 71.2 36.4
UH Manoa Atmospheric Sciences 1/19/21 0430 69.4 91 66.8 2.4 S | 171 5.9 0.02 0 69.4 29.96 0.22 69.3 71.2 36.4
UH Manoa Atmospheric Sciences 1/19/21 0415 69.4 91 66.6 4.6 SSW | 202 11.7 0.00 0 69.4 29.95 0.20 69.3 71.2 36.4
UH Manoa Atmospheric Sciences 1/19/21 0400 69.7 91 66.9 5.1 SSW | 204 13.9 0.05 0 69.7 29.96 0.20 69.3 71.2 36.4
UH Manoa Atmospheric Sciences 1/19/21 0345 69.4 92 66.9 4.9 WSW | 243 11.4 0.02 0 69.4 29.96 0.15 69.3 71.2 36.4
UH Manoa Atmospheric Sciences 1/19/21 0330 69.5 91 66.9 3.9 WSW | 241 8.6 0.01 0 69.5 29.96 0.13 69.3 71.2 36.4
UH Manoa Atmospheric Sciences 1/19/21 0315 69.4 92 66.8 3.3 SW | 222 8.2 0.01 0 69.4 29.96 0.12 69.3 71.2 36.4
UH Manoa Atmospheric Sciences 1/19/21 0300 69.6 90 66.6 2.3 W | 261 5.9 0.01 0 69.6 29.96 0.11 69.3 71.2 36.4
UH Manoa Atmospheric Sciences 1/19/21 0245 70.0 88 66.4 4.8 WSW | 246 11.7 0.02 0 70.0 29.97 0.10 69.6 71.2 36.4
UH Manoa Atmospheric Sciences 1/19/21 0230 70.4 88 66.6 4.4 WNW | 298 13.6 0.00 0 70.4 29.97 0.08 70.0 71.2 36.4
UH Manoa Atmospheric Sciences 1/19/21 0215 70.1 88 66.6 6.9 SW | 228 17.4 0.01 0 70.1 29.97 0.08 70.0 71.2 36.4
UH Manoa Atmospheric Sciences 1/19/21 0200 70.5 87 66.4 6.9 SSW | 213 20.0 0.02 0 70.5 29.98 0.07 70.1 71.2 36.4
UH Manoa Atmospheric Sciences 1/19/21 0145 70.9 86 66.4 4.7 NE | 52 17.9 0.00 0 70.9 29.98 0.05 70.1 71.2 36.4
UH Manoa Atmospheric Sciences 1/19/21 0130 70.8 86 66.3 8.8 ENE | 60 27.0 0.01 0 70.8 29.98 0.05 70.1 71.1 36.4
UH Manoa Atmospheric Sciences 1/19/21 0115 70.7 86 66.3 9.9 NE | 44 24.7 0.01 0 70.7 29.97 0.04 70.1 71.1 36.4
UH Manoa Atmospheric Sciences 1/19/21 0100 70.6 86 66.2 13.7 NE | 46 35.3 0.00 0 70.6 29.97 0.03 70.1 71.1 36.4
UH Manoa Atmospheric Sciences 1/19/21 0045 70.7 85 66.1 13.8 NE | 43 32.6 0.00 0 70.7 29.96 0.03 70.1 71.0 36.4
UH Manoa Atmospheric Sciences 1/19/21 0030 70.4 86 66.2 12.4 NE | 49 35.2 0.01 0 70.4 29.97 0.03 70.1 70.6 36.4
UH Manoa Atmospheric Sciences 1/19/21 0015 70.3 86 66.2 15.9 NE | 49 36.4 0.02 0 70.3 29.97 0.02 70.1 70.6 36.4
UH Manoa Atmospheric Sciences 1/19/21 0000 69.8 88 66.0 14.3 NE | 53 30.0 0.00 0 69.8 29.97 0.69 67.1 72.8 44.9
UH Manoa Atmospheric Sciences 1/18/21 2345 69.9 87 66.0 19.3 NE | 43 39.5 0.01 1 69.9 29.97 0.69 67.1 72.8 44.9
UH Manoa Atmospheric Sciences 1/18/21 2330 70.5 84 65.5 19.9 NE | 42 39.4 0.00 0 70.5 29.97 0.68 67.1 72.8 44.9
UH Manoa Atmospheric Sciences 1/18/21 2315 70.3 84 65.4 22.5 NE | 38 41.6 0.00 0 70.3 29.97 0.68 67.1 72.8 44.9
UH Manoa Atmospheric Sciences 1/18/21 2300 69.8 86 65.5 16.2 NE | 47 37.8 0.01 0 69.8 29.98 0.68 67.1 72.8 44.9
Max     79.4 92 67.2 22.5 - 41.6 0.05 810 79.7 30.05 0.69 70.1 80.4 44.9
Avg     74.0 77 66.0 6.8 - 15.7 0.00 191 74.0 29.99 - - - -
Min     69.4 60 63.8 2.0 - 5.7 0.00 0 69.4 29.95 0.02 67.1 70.6 36.4